sensor_id;sensor_type;location;lat;lon;timestamp;pressure;altitude;pressure_sealevel;temperature;humidity
56241;BME280;42155;53.096;23.226;2022-12-29T00:01:46;99625.13;;;4.63;74.19
56241;BME280;42155;53.096;23.226;2022-12-29T00:03:47;99635.44;;;4.66;73.96
56241;BME280;42155;53.096;23.226;2022-12-29T00:05:54;99623.06;;;4.68;74.10
56241;BME280;42155;53.096;23.226;2022-12-29T00:07:55;99628.22;;;4.69;73.51
56241;BME280;42155;53.096;23.226;2022-12-29T00:09:55;99623.69;;;4.71;74.21
56241;BME280;42155;53.096;23.226;2022-12-29T00:11:56;99629.06;;;4.70;73.58
56241;BME280;42155;53.096;23.226;2022-12-29T00:13:56;99618.94;;;4.64;73.59
56241;BME280;42155;53.096;23.226;2022-12-29T00:15:57;99628.50;;;4.65;73.69
56241;BME280;42155;53.096;23.226;2022-12-29T00:17:57;99586.28;;;4.39;73.93
56241;BME280;42155;53.096;23.226;2022-12-29T00:19:57;99604.47;;;4.56;73.81
56241;BME280;42155;53.096;23.226;2022-12-29T00:21:58;99536.91;;;4.16;73.88
56241;BME280;42155;53.096;23.226;2022-12-29T00:23:59;99615.06;;;4.69;74.26
56241;BME280;42155;53.096;23.226;2022-12-29T00:26:03;99619.66;;;4.66;74.60
56241;BME280;42155;53.096;23.226;2022-12-29T00:28:04;99594.22;;;4.52;74.36
56241;BME280;42155;53.096;23.226;2022-12-29T00:30:17;99610.38;;;4.60;74.26
56241;BME280;42155;53.096;23.226;2022-12-29T00:32:18;99608.69;;;4.59;73.97
56241;BME280;42155;53.096;23.226;2022-12-29T00:34:18;99561.47;;;4.29;73.73
56241;BME280;42155;53.096;23.226;2022-12-29T00:38:21;99629.16;;;4.68;74.42
56241;BME280;42155;53.096;23.226;2022-12-29T00:40:22;99624.25;;;4.62;74.80
56241;BME280;42155;53.096;23.226;2022-12-29T00:42:22;99646.50;;;4.71;74.56
56241;BME280;42155;53.096;23.226;2022-12-29T00:44:23;99628.09;;;4.71;74.83
56241;BME280;42155;53.096;23.226;2022-12-29T00:46:23;99622.41;;;4.64;74.52
56241;BME280;42155;53.096;23.226;2022-12-29T00:48:23;99634.13;;;4.73;74.16
56241;BME280;42155;53.096;23.226;2022-12-29T00:50:24;99633.56;;;4.68;75.01
56241;BME280;42155;53.096;23.226;2022-12-29T00:52:24;99582.03;;;4.37;75.08
56241;BME280;42155;53.096;23.226;2022-12-29T00:54:24;99623.53;;;4.60;75.07
56241;BME280;42155;53.096;23.226;2022-12-29T00:56:25;99623.63;;;4.58;75.66
56241;BME280;42155;53.096;23.226;2022-12-29T00:58:29;99610.09;;;4.50;75.42
56241;BME280;42155;53.096;23.226;2022-12-29T01:00:30;99638.16;;;4.64;75.62
56241;BME280;42155;53.096;23.226;2022-12-29T01:02:30;99634.59;;;4.65;76.26
56241;BME280;42155;53.096;23.226;2022-12-29T01:04:31;99602.59;;;4.44;75.83
56241;BME280;42155;53.096;23.226;2022-12-29T01:06:31;99631.69;;;4.70;76.45
56241;BME280;42155;53.096;23.226;2022-12-29T01:08:32;99613.97;;;4.59;75.95
56241;BME280;42155;53.096;23.226;2022-12-29T01:10:33;99636.75;;;4.73;75.93
56241;BME280;42155;53.096;23.226;2022-12-29T01:12:34;99619.66;;;4.66;76.16
56241;BME280;42155;53.096;23.226;2022-12-29T01:14:35;99612.34;;;4.56;76.38
56241;BME280;42155;53.096;23.226;2022-12-29T01:16:35;99624.91;;;4.66;76.21
56241;BME280;42155;53.096;23.226;2022-12-29T01:18:35;99596.13;;;4.50;76.63
56241;BME280;42155;53.096;23.226;2022-12-29T01:20:36;99602.59;;;4.58;77.24
56241;BME280;42155;53.096;23.226;2022-12-29T01:22:36;99612.72;;;4.65;77.34
56241;BME280;42155;53.096;23.226;2022-12-29T01:24:37;99616.31;;;4.64;77.28
56241;BME280;42155;53.096;23.226;2022-12-29T01:26:37;99617.13;;;4.64;77.69
56241;BME280;42155;53.096;23.226;2022-12-29T01:28:38;99616.31;;;4.64;77.57
56241;BME280;42155;53.096;23.226;2022-12-29T01:30:38;99606.16;;;4.57;78.59
56241;BME280;42155;53.096;23.226;2022-12-29T01:32:38;99612.63;;;4.52;78.08
56241;BME280;42155;53.096;23.226;2022-12-29T01:34:39;99597.91;;;4.49;79.02
56241;BME280;42155;53.096;23.226;2022-12-29T01:36:39;99606.44;;;4.53;78.60
56241;BME280;42155;53.096;23.226;2022-12-29T01:38:40;99596.03;;;4.51;78.86
56241;BME280;42155;53.096;23.226;2022-12-29T01:40:45;99619.88;;;4.63;79.17
56241;BME280;42155;53.096;23.226;2022-12-29T01:42:46;99612.00;;;4.63;79.00
56241;BME280;42155;53.096;23.226;2022-12-29T01:44:56;99584.00;;;4.47;79.17
56241;BME280;42155;53.096;23.226;2022-12-29T01:46:57;99604.00;;;4.64;79.35
56241;BME280;42155;53.096;23.226;2022-12-29T01:51:16;99560.00;;;4.39;78.38
56241;BME280;42155;53.096;23.226;2022-12-29T01:53:21;99587.00;;;4.55;78.74
56241;BME280;42155;53.096;23.226;2022-12-29T01:55:24;99592.94;;;4.59;79.31
56241;BME280;42155;53.096;23.226;2022-12-29T01:57:35;99591.25;;;4.58;78.90
56241;BME280;42155;53.096;23.226;2022-12-29T01:59:43;99534.66;;;4.24;79.08
56241;BME280;42155;53.096;23.226;2022-12-29T02:01:45;99546.09;;;4.37;79.34
56241;BME280;42155;53.096;23.226;2022-12-29T02:03:46;99564.38;;;4.39;79.09
56241;BME280;42155;53.096;23.226;2022-12-29T02:08:14;99575.84;;;4.52;79.51
56241;BME280;42155;53.096;23.226;2022-12-29T02:10:15;99593.88;;;4.58;79.83
56241;BME280;42155;53.096;23.226;2022-12-29T02:12:17;99584.22;;;4.58;79.88
56241;BME280;42155;53.096;23.226;2022-12-29T02:14:19;99579.03;;;4.57;80.19
56241;BME280;42155;53.096;23.226;2022-12-29T02:16:51;99578.19;;;4.56;79.36
56241;BME280;42155;53.096;23.226;2022-12-29T02:24:05;99581.75;;;4.55;79.39
56241;BME280;42155;53.096;23.226;2022-12-29T02:32:06;99587.00;;;4.55;79.98
56241;BME280;42155;53.096;23.226;2022-12-29T02:34:22;99577.44;;;4.54;79.37
56241;BME280;42155;53.096;23.226;2022-12-29T02:41:07;99573.75;;;4.57;79.64
56241;BME280;42155;53.096;23.226;2022-12-29T02:43:16;99564.09;;;4.57;79.52
56241;BME280;42155;53.096;23.226;2022-12-29T02:45:41;99565.88;;;4.57;80.14
56241;BME280;42155;53.096;23.226;2022-12-29T02:47:49;99567.66;;;4.56;80.13
56241;BME280;42155;53.096;23.226;2022-12-29T02:50:07;99568.44;;;4.58;79.65
56241;BME280;42155;53.096;23.226;2022-12-29T02:52:16;99557.25;;;4.55;79.66
56241;BME280;42155;53.096;23.226;2022-12-29T02:54:20;99553.97;;;4.51;79.93
56241;BME280;42155;53.096;23.226;2022-12-29T02:56:21;99540.66;;;4.40;79.74
56241;BME280;42155;53.096;23.226;2022-12-29T02:58:23;99566.44;;;4.62;79.45
56241;BME280;42155;53.096;23.226;2022-12-29T03:00:23;99566.00;;;4.55;79.59
56241;BME280;42155;53.096;23.226;2022-12-29T03:03:04;99555.22;;;4.46;80.20
56241;BME280;42155;53.096;23.226;2022-12-29T03:14:37;99559.06;;;4.54;79.90
56241;BME280;42155;53.096;23.226;2022-12-29T03:16:48;99558.22;;;4.54;79.59
56241;BME280;42155;53.096;23.226;2022-12-29T03:18:56;99563.53;;;4.52;79.67
56241;BME280;42155;53.096;23.226;2022-12-29T03:23:05;99559.72;;;4.58;78.81
56241;BME280;42155;53.096;23.226;2022-12-29T03:25:30;99539.53;;;4.44;79.04
56241;BME280;42155;53.096;23.226;2022-12-29T03:27:36;99552.84;;;4.55;78.68
56241;BME280;42155;53.096;23.226;2022-12-29T03:29:42;99558.47;;;4.64;78.86
56241;BME280;42155;53.096;23.226;2022-12-29T03:31:46;99527.16;;;4.46;78.98
56241;BME280;42155;53.096;23.226;2022-12-29T03:33:48;99536.81;;;4.46;78.59
56241;BME280;42155;53.096;23.226;2022-12-29T03:35:51;99564.69;;;4.63;78.66
56241;BME280;42155;53.096;23.226;2022-12-29T03:38:16;99559.44;;;4.63;78.39
56241;BME280;42155;53.096;23.226;2022-12-29T03:40:18;99564.69;;;4.63;78.55
56241;BME280;42155;53.096;23.226;2022-12-29T03:42:23;99563.91;;;4.60;79.08
56241;BME280;42155;53.096;23.226;2022-12-29T03:44:53;99554.47;;;4.58;78.91
56241;BME280;42155;53.096;23.226;2022-12-29T03:46:54;99569.56;;;4.54;78.91
56241;BME280;42155;53.096;23.226;2022-12-29T03:48:54;99560.19;;;4.50;79.28
56241;BME280;42155;53.096;23.226;2022-12-29T03:50:54;99562.16;;;4.47;78.75
56241;BME280;42155;53.096;23.226;2022-12-29T03:52:55;99562.03;;;4.48;79.16
56241;BME280;42155;53.096;23.226;2022-12-29T03:54:55;99556.03;;;4.46;78.91
56241;BME280;42155;53.096;23.226;2022-12-29T03:56:56;99548.34;;;4.43;79.03
56241;BME280;42155;53.096;23.226;2022-12-29T03:58:56;99550.97;;;4.43;79.56
56241;BME280;42155;53.096;23.226;2022-12-29T04:00:57;99550.06;;;4.44;79.78
56241;BME280;42155;53.096;23.226;2022-12-29T04:02:57;99539.16;;;4.36;79.34
56241;BME280;42155;53.096;23.226;2022-12-29T04:04:57;99549.13;;;4.45;79.64
56241;BME280;42155;53.096;23.226;2022-12-29T04:06:58;99539.53;;;4.44;79.56
56241;BME280;42155;53.096;23.226;2022-12-29T04:08:58;99546.47;;;4.45;80.14
56241;BME280;42155;53.096;23.226;2022-12-29T04:10:58;99545.72;;;4.43;80.15
56241;BME280;42155;53.096;23.226;2022-12-29T04:12:59;99545.81;;;4.42;80.31
56241;BME280;42155;53.096;23.226;2022-12-29T04:14:59;99499.00;;;4.05;80.25
56241;BME280;42155;53.096;23.226;2022-12-29T04:16:59;99553.03;;;4.38;80.46
56241;BME280;42155;53.096;23.226;2022-12-29T04:19:00;99554.75;;;4.39;80.57
56241;BME280;42155;53.096;23.226;2022-12-29T04:21:00;99545.25;;;4.37;80.29
56241;BME280;42155;53.096;23.226;2022-12-29T04:23:02;99547.78;;;4.38;80.08
56241;BME280;42155;53.096;23.226;2022-12-29T04:25:03;99547.88;;;4.37;80.25
56241;BME280;42155;53.096;23.226;2022-12-29T04:27:03;99558.50;;;4.35;80.94
56241;BME280;42155;53.096;23.226;2022-12-29T04:29:04;99544.59;;;4.33;80.47
56241;BME280;42155;53.096;23.226;2022-12-29T04:31:04;99556.78;;;4.34;80.24
56241;BME280;42155;53.096;23.226;2022-12-29T04:33:05;99522.03;;;4.16;79.98
56241;BME280;42155;53.096;23.226;2022-12-29T04:35:05;99550.06;;;4.30;80.37
56241;BME280;42155;53.096;23.226;2022-12-29T04:37:06;99522.19;;;4.13;80.44
56241;BME280;42155;53.096;23.226;2022-12-29T04:39:06;99543.31;;;4.26;80.44
56241;BME280;42155;53.096;23.226;2022-12-29T04:41:07;99530.91;;;4.14;80.93
56241;BME280;42155;53.096;23.226;2022-12-29T04:43:07;99550.25;;;4.27;80.85
56241;BME280;42155;53.096;23.226;2022-12-29T04:45:08;99542.66;;;4.22;80.57
56241;BME280;42155;53.096;23.226;2022-12-29T04:47:08;99541.59;;;4.25;80.55
56241;BME280;42155;53.096;23.226;2022-12-29T04:49:09;99533.81;;;4.23;80.89
56241;BME280;42155;53.096;23.226;2022-12-29T04:51:09;99529.69;;;4.19;81.08
56241;BME280;42155;53.096;23.226;2022-12-29T04:53:09;99465.63;;;3.79;81.28
56241;BME280;42155;53.096;23.226;2022-12-29T04:55:10;99520.03;;;4.05;81.34
56241;BME280;42155;53.096;23.226;2022-12-29T04:57:10;99544.72;;;4.17;80.95
56241;BME280;42155;53.096;23.226;2022-12-29T04:59:10;99546.38;;;4.18;80.72
56241;BME280;42155;53.096;23.226;2022-12-29T05:01:11;99546.38;;;4.18;80.92
56241;BME280;42155;53.096;23.226;2022-12-29T05:03:11;99517.78;;;3.99;80.99
56241;BME280;42155;53.096;23.226;2022-12-29T05:05:12;99527.91;;;4.05;81.18
56241;BME280;42155;53.096;23.226;2022-12-29T05:07:12;99535.44;;;4.12;81.03
56241;BME280;42155;53.096;23.226;2022-12-29T05:09:13;99534.66;;;4.09;80.91
56241;BME280;42155;53.096;23.226;2022-12-29T05:11:13;99531.28;;;4.07;81.12
56241;BME280;42155;53.096;23.226;2022-12-29T05:13:13;99523.75;;;4.01;81.27
56241;BME280;42155;53.096;23.226;2022-12-29T05:15:14;99501.47;;;3.94;81.76
56241;BME280;42155;53.096;23.226;2022-12-29T05:17:14;99503.72;;;4.00;81.70
56241;BME280;42155;53.096;23.226;2022-12-29T05:19:14;99500.13;;;4.01;81.24
56241;BME280;42155;53.096;23.226;2022-12-29T05:21:15;99507.16;;;4.01;80.91
56241;BME280;42155;53.096;23.226;2022-12-29T05:23:15;99491.41;;;4.01;80.89
56241;BME280;42155;53.096;23.226;2022-12-29T05:25:15;99484.59;;;3.98;81.09
56241;BME280;42155;53.096;23.226;2022-12-29T05:27:16;99488.91;;;3.99;81.43
56241;BME280;42155;53.096;23.226;2022-12-29T05:29:16;99493.03;;;4.03;81.02
56241;BME280;42155;53.096;23.226;2022-12-29T05:31:16;99482.81;;;3.99;81.19
56241;BME280;42155;53.096;23.226;2022-12-29T05:33:18;99484.31;;;4.03;81.46
56241;BME280;42155;53.096;23.226;2022-12-29T05:35:19;99486.84;;;4.04;81.09
56241;BME280;42155;53.096;23.226;2022-12-29T05:37:19;99493.75;;;4.05;81.72
56241;BME280;42155;53.096;23.226;2022-12-29T05:39:19;99500.69;;;4.06;80.96
56241;BME280;42155;53.096;23.226;2022-12-29T05:41:20;99480.25;;;3.97;81.49
56241;BME280;42155;53.096;23.226;2022-12-29T05:43:20;99490.97;;;4.08;81.14
56241;BME280;42155;53.096;23.226;2022-12-29T05:45:20;99422.72;;;3.66;81.11
56241;BME280;42155;53.096;23.226;2022-12-29T05:47:24;99479.69;;;4.06;81.16
56241;BME280;42155;53.096;23.226;2022-12-29T05:49:24;99478.50;;;3.98;81.52
56241;BME280;42155;53.096;23.226;2022-12-29T05:51:24;99458.13;;;3.87;81.33
56241;BME280;42155;53.096;23.226;2022-12-29T05:53:25;99487.22;;;3.98;81.43
56241;BME280;42155;53.096;23.226;2022-12-29T05:55:25;99466.94;;;3.86;81.60
56241;BME280;42155;53.096;23.226;2022-12-29T05:57:25;99506.34;;;4.00;81.42
56241;BME280;42155;53.096;23.226;2022-12-29T05:59:26;99464.78;;;3.78;81.42
56241;BME280;42155;53.096;23.226;2022-12-29T06:01:26;99502.75;;;4.01;81.30
56241;BME280;42155;53.096;23.226;2022-12-29T06:03:27;99500.34;;;3.98;81.86
56241;BME280;42155;53.096;23.226;2022-12-29T06:05:27;99487.28;;;3.82;81.59
56241;BME280;42155;53.096;23.226;2022-12-29T06:07:27;99496.22;;;3.94;81.34
56241;BME280;42155;53.096;23.226;2022-12-29T06:09:28;99501.47;;;3.94;81.79
56241;BME280;42155;53.096;23.226;2022-12-29T06:11:28;99472.94;;;3.74;81.53
56241;BME280;42155;53.096;23.226;2022-12-29T06:13:28;99513.66;;;3.95;81.82
56241;BME280;42155;53.096;23.226;2022-12-29T06:15:28;99517.59;;;4.02;81.24
56241;BME280;42155;53.096;23.226;2022-12-29T06:17:29;99520.13;;;4.04;81.76
56241;BME280;42155;53.096;23.226;2022-12-29T06:19:29;99495.66;;;4.03;81.93
56241;BME280;42155;53.096;23.226;2022-12-29T06:21:29;99494.44;;;3.95;81.87
56241;BME280;42155;53.096;23.226;2022-12-29T06:23:30;99487.22;;;3.98;81.27
56241;BME280;42155;53.096;23.226;2022-12-29T06:25:30;99515.88;;;4.01;81.20
56241;BME280;42155;53.096;23.226;2022-12-29T06:27:31;99513.47;;;3.98;81.32
56241;BME280;42155;53.096;23.226;2022-12-29T06:29:32;99519.63;;;3.97;81.65
56241;BME280;42155;53.096;23.226;2022-12-29T06:31:32;99509.41;;;3.93;81.81
56241;BME280;42155;53.096;23.226;2022-12-29T06:33:32;99519.06;;;3.92;81.44
56241;BME280;42155;53.096;23.226;2022-12-29T06:35:33;99494.03;;;3.87;82.06
56241;BME280;42155;53.096;23.226;2022-12-29T06:37:33;99474.81;;;3.72;81.64
56241;BME280;42155;53.096;23.226;2022-12-29T06:39:33;99487.75;;;3.75;81.76
56241;BME280;42155;53.096;23.226;2022-12-29T06:41:33;99413.50;;;3.44;81.90
56241;BME280;42155;53.096;23.226;2022-12-29T06:43:34;99471.25;;;3.73;81.38
56241;BME280;42155;53.096;23.226;2022-12-29T06:45:34;99476.69;;;3.70;82.24
56241;BME280;42155;53.096;23.226;2022-12-29T06:47:35;99479.69;;;3.64;82.02
56241;BME280;42155;53.096;23.226;2022-12-29T06:49:35;99500.69;;;3.78;82.07
56241;BME280;42155;53.096;23.226;2022-12-29T06:51:36;99498.81;;;3.80;81.83
56241;BME280;42155;53.096;23.226;2022-12-29T06:53:36;99489.16;;;3.66;82.13
56241;BME280;42155;53.096;23.226;2022-12-29T06:55:36;99490.38;;;3.75;81.68
56241;BME280;42155;53.096;23.226;2022-12-29T06:57:37;99458.66;;;3.49;81.77
56241;BME280;42155;53.096;23.226;2022-12-29T06:59:37;99473.47;;;3.65;81.80
56241;BME280;42155;53.096;23.226;2022-12-29T07:01:37;99474.34;;;3.65;81.79
56241;BME280;42155;53.096;23.226;2022-12-29T07:03:41;99461.69;;;3.57;81.49
56241;BME280;42155;53.096;23.226;2022-12-29T07:05:41;99461.69;;;3.57;82.09
56241;BME280;42155;53.096;23.226;2022-12-29T07:07:42;99474.63;;;3.61;81.91
56241;BME280;42155;53.096;23.226;2022-12-29T07:09:42;99513.06;;;3.76;81.98
56241;BME280;42155;53.096;23.226;2022-12-29T07:11:42;99474.69;;;3.59;81.57
56241;BME280;42155;53.096;23.226;2022-12-29T07:13:43;99492.44;;;3.70;82.15
56241;BME280;42155;53.096;23.226;2022-12-29T07:15:43;99503.69;;;3.72;82.13
56241;BME280;42155;53.096;23.226;2022-12-29T07:17:43;99493.34;;;3.69;81.89
56241;BME280;42155;53.096;23.226;2022-12-29T07:19:44;99481.56;;;3.62;81.89
56241;BME280;42155;53.096;23.226;2022-12-29T07:21:44;99481.00;;;3.56;81.58
56241;BME280;42155;53.096;23.226;2022-12-29T07:23:44;99478.09;;;3.61;81.99
56241;BME280;42155;53.096;23.226;2022-12-29T07:25:45;99466.38;;;3.52;81.89
56241;BME280;42155;53.096;23.226;2022-12-29T07:27:45;99493.63;;;3.64;81.78
56241;BME280;42155;53.096;23.226;2022-12-29T07:29:45;99491.84;;;3.65;81.30
56241;BME280;42155;53.096;23.226;2022-12-29T07:31:46;99476.88;;;3.67;81.77
56241;BME280;42155;53.096;23.226;2022-12-29T07:33:47;99483.81;;;3.68;81.60
56241;BME280;42155;53.096;23.226;2022-12-29T07:35:47;99446.31;;;3.51;81.26
56241;BME280;42155;53.096;23.226;2022-12-29T07:37:47;99417.97;;;3.28;81.19
56241;BME280;42155;53.096;23.226;2022-12-29T07:39:48;99465.63;;;3.65;81.05
56241;BME280;42155;53.096;23.226;2022-12-29T07:41:48;99464.78;;;3.64;81.64
56241;BME280;42155;53.096;23.226;2022-12-29T07:43:48;99470.69;;;3.68;81.77
56241;BME280;42155;53.096;23.226;2022-12-29T07:45:49;99456.72;;;3.67;81.46
56241;BME280;42155;53.096;23.226;2022-12-29T07:47:49;99479.31;;;3.70;80.98
56241;BME280;42155;53.096;23.226;2022-12-29T07:49:50;99476.59;;;3.71;80.97
56241;BME280;42155;53.096;23.226;2022-12-29T07:51:50;99458.97;;;3.59;81.37
56241;BME280;42155;53.096;23.226;2022-12-29T07:53:51;99478.38;;;3.71;81.30
56241;BME280;42155;53.096;23.226;2022-12-29T07:55:51;99463.53;;;3.55;80.89
56241;BME280;42155;53.096;23.226;2022-12-29T07:57:59;99480.25;;;3.69;81.33
56241;BME280;42155;53.096;23.226;2022-12-29T07:59:59;99479.22;;;3.71;81.13
56241;BME280;42155;53.096;23.226;2022-12-29T08:02:00;99446.50;;;3.48;81.09
56241;BME280;42155;53.096;23.226;2022-12-29T08:04:00;99486.81;;;3.76;80.83
56241;BME280;42155;53.096;23.226;2022-12-29T08:06:01;99460.84;;;3.57;81.20
56241;BME280;42155;53.096;23.226;2022-12-29T08:08:01;99474.44;;;3.64;81.20
56241;BME280;42155;53.096;23.226;2022-12-29T08:10:02;99468.22;;;3.65;80.90
56241;BME280;42155;53.096;23.226;2022-12-29T08:12:03;99463.94;;;3.78;81.37
56241;BME280;42155;53.096;23.226;2022-12-29T08:14:03;99451.38;;;3.69;80.74
56241;BME280;42155;53.096;23.226;2022-12-29T08:16:04;99436.94;;;3.62;80.59
56241;BME280;42155;53.096;23.226;2022-12-29T08:18:04;99427.84;;;3.53;80.88
56241;BME280;42155;53.096;23.226;2022-12-29T08:20:05;99463.94;;;3.78;81.11
56241;BME280;42155;53.096;23.226;2022-12-29T08:22:06;99463.88;;;3.79;81.09
56241;BME280;42155;53.096;23.226;2022-12-29T08:24:08;99456.84;;;3.80;80.99
56241;BME280;42155;53.096;23.226;2022-12-29T08:26:09;99432.53;;;3.62;80.53
56241;BME280;42155;53.096;23.226;2022-12-29T08:28:10;99472.47;;;3.96;80.79
56241;BME280;42155;53.096;23.226;2022-12-29T08:30:10;99461.31;;;3.92;80.36
56241;BME280;42155;53.096;23.226;2022-12-29T08:32:11;99468.63;;;4.01;80.02
56241;BME280;42155;53.096;23.226;2022-12-29T08:34:12;99480.19;;;4.13;80.33
56241;BME280;42155;53.096;23.226;2022-12-29T08:36:12;99471.34;;;4.14;80.16
56241;BME280;42155;53.096;23.226;2022-12-29T08:38:12;99469.56;;;4.29;79.93
56241;BME280;42155;53.096;23.226;2022-12-29T08:40:13;99461.59;;;4.30;79.02
56241;BME280;42155;53.096;23.226;2022-12-29T08:42:13;99430.69;;;4.07;79.25
56241;BME280;42155;53.096;23.226;2022-12-29T08:44:14;99457.53;;;4.25;78.86
56241;BME280;42155;53.096;23.226;2022-12-29T08:46:15;99457.00;;;4.20;79.28
56241;BME280;42155;53.096;23.226;2022-12-29T08:48:15;99461.50;;;4.18;79.11
56241;BME280;42155;53.096;23.226;2022-12-29T08:50:16;99486.81;;;4.33;78.97
56241;BME280;42155;53.096;23.226;2022-12-29T08:52:16;99469.94;;;4.23;79.36
56241;BME280;42155;53.096;23.226;2022-12-29T08:54:17;99481.66;;;4.31;78.92
56241;BME280;42155;53.096;23.226;2022-12-29T08:56:17;99475.56;;;4.31;78.93
56241;BME280;42155;53.096;23.226;2022-12-29T08:58:18;99471.44;;;4.27;78.99
56241;BME280;42155;53.096;23.226;2022-12-29T09:00:18;99455.78;;;4.25;79.27
56241;BME280;42155;53.096;23.226;2022-12-29T09:02:18;99457.19;;;4.31;78.82
56241;BME280;42155;53.096;23.226;2022-12-29T09:04:19;99443.50;;;4.26;78.72
56241;BME280;42155;53.096;23.226;2022-12-29T09:06:19;99444.06;;;4.31;78.62
56241;BME280;42155;53.096;23.226;2022-12-29T09:08:21;99438.03;;;4.29;78.92
56241;BME280;42155;53.096;23.226;2022-12-29T09:10:22;99442.06;;;4.34;78.58
56241;BME280;42155;53.096;23.226;2022-12-29T09:12:22;99442.91;;;4.35;78.73
56241;BME280;42155;53.096;23.226;2022-12-29T09:14:22;99457.34;;;4.42;78.26
56241;BME280;42155;53.096;23.226;2022-12-29T09:16:24;99453.88;;;4.42;78.32
56241;BME280;42155;53.096;23.226;2022-12-29T09:18:24;99460.19;;;4.39;78.23
56241;BME280;42155;53.096;23.226;2022-12-29T09:20:25;99448.91;;;4.37;78.71
56241;BME280;42155;53.096;23.226;2022-12-29T09:22:25;99456.78;;;4.37;78.63
56241;BME280;42155;53.096;23.226;2022-12-29T09:24:25;99462.34;;;4.32;78.55
56241;BME280;42155;53.096;23.226;2022-12-29T09:26:26;99460.38;;;4.36;78.56
56241;BME280;42155;53.096;23.226;2022-12-29T09:28:26;99448.19;;;4.35;78.44
56241;BME280;42155;53.096;23.226;2022-12-29T09:30:27;99443.28;;;4.29;78.20
56241;BME280;42155;53.096;23.226;2022-12-29T09:32:27;99451.53;;;4.37;78.27
56241;BME280;42155;53.096;23.226;2022-12-29T09:34:27;99429.97;;;4.32;77.49
56241;BME280;42155;53.096;23.226;2022-12-29T09:36:28;99438.50;;;4.36;77.62
56241;BME280;42155;53.096;23.226;2022-12-29T09:38:28;99426.69;;;4.28;77.56
56241;BME280;42155;53.096;23.226;2022-12-29T09:40:33;99447.78;;;4.41;77.43
56241;BME280;42155;53.096;23.226;2022-12-29T09:42:45;99436.31;;;4.42;77.55
56241;BME280;42155;53.096;23.226;2022-12-29T09:47:15;99403.91;;;4.15;77.66
56241;BME280;42155;53.096;23.226;2022-12-29T09:49:30;99431.63;;;4.47;77.21
56241;BME280;42155;53.096;23.226;2022-12-29T09:51:36;99419.00;;;4.40;77.21
56241;BME280;42155;53.096;23.226;2022-12-29T09:53:41;99430.59;;;4.50;77.47
56241;BME280;42155;53.096;23.226;2022-12-29T09:55:45;99433.09;;;4.51;77.13
56241;BME280;42155;53.096;23.226;2022-12-29T09:57:56;99435.53;;;4.54;77.38
56241;BME280;42155;53.096;23.226;2022-12-29T10:00:28;99440.59;;;4.57;77.21
56241;BME280;42155;53.096;23.226;2022-12-29T10:02:32;99438.91;;;4.56;77.08
56241;BME280;42155;53.096;23.226;2022-12-29T10:04:35;99441.34;;;4.59;76.65
56241;BME280;42155;53.096;23.226;2022-12-29T10:06:56;99433.16;;;4.64;76.71
56241;BME280;42155;53.096;23.226;2022-12-29T10:14:02;99423.84;;;4.73;76.55
56241;BME280;42155;53.096;23.226;2022-12-29T10:16:12;99407.03;;;4.75;76.50
56241;BME280;42155;53.096;23.226;2022-12-29T10:20:49;99409.16;;;4.83;75.89
56241;BME280;42155;53.096;23.226;2022-12-29T10:25:15;99420.75;;;4.93;75.62
56241;BME280;42155;53.096;23.226;2022-12-29T10:27:17;99406.88;;;4.91;76.19
56241;BME280;42155;53.096;23.226;2022-12-29T10:29:28;99335.75;;;4.40;75.47
56241;BME280;42155;53.096;23.226;2022-12-29T10:31:37;99411.19;;;4.92;75.78
56241;BME280;42155;53.096;23.226;2022-12-29T10:33:41;99369.34;;;4.62;75.60
56241;BME280;42155;53.096;23.226;2022-12-29T10:35:42;99414.75;;;4.91;75.81
56241;BME280;42155;53.096;23.226;2022-12-29T10:39:49;99397.91;;;4.81;75.83
56241;BME280;42155;53.096;23.226;2022-12-29T10:42:09;99411.59;;;4.86;75.33
56241;BME280;42155;53.096;23.226;2022-12-29T10:44:14;99412.50;;;4.85;75.29
56241;BME280;42155;53.096;23.226;2022-12-29T10:46:21;99402.09;;;4.83;75.17
56241;BME280;42155;53.096;23.226;2022-12-29T10:48:28;99386.84;;;4.76;75.28
56241;BME280;42155;53.096;23.226;2022-12-29T10:50:30;99403.34;;;4.78;75.56
56241;BME280;42155;53.096;23.226;2022-12-29T10:52:32;99392.97;;;4.76;75.36
56241;BME280;42155;53.096;23.226;2022-12-29T10:54:52;99385.16;;;4.75;75.22
56241;BME280;42155;53.096;23.226;2022-12-29T10:56:56;99381.56;;;4.76;75.45
56241;BME280;42155;53.096;23.226;2022-12-29T10:59:08;99382.69;;;4.86;75.15
56241;BME280;42155;53.096;23.226;2022-12-29T11:01:12;99365.25;;;4.71;75.10
56241;BME280;42155;53.096;23.226;2022-12-29T11:07:28;99377.69;;;5.08;74.72
56241;BME280;42155;53.096;23.226;2022-12-29T11:09:31;99371.47;;;5.09;74.46
56241;BME280;42155;53.096;23.226;2022-12-29T11:11:34;99365.47;;;5.20;74.25
56241;BME280;42155;53.096;23.226;2022-12-29T11:13:48;99370.63;;;5.22;74.24
56241;BME280;42155;53.096;23.226;2022-12-29T11:15:50;99373.78;;;5.27;73.93
56241;BME280;42155;53.096;23.226;2022-12-29T11:17:53;99378.84;;;5.30;73.84
56241;BME280;42155;53.096;23.226;2022-12-29T11:19:56;99374.22;;;5.33;73.54
56241;BME280;42155;53.096;23.226;2022-12-29T11:24:24;99363.69;;;5.33;73.41
56241;BME280;42155;53.096;23.226;2022-12-29T11:26:26;99357.59;;;5.33;73.19
56241;BME280;42155;53.096;23.226;2022-12-29T11:28:27;99355.69;;;5.35;73.28
56241;BME280;42155;53.096;23.226;2022-12-29T11:30:30;99347.47;;;5.40;72.84
56241;BME280;42155;53.096;23.226;2022-12-29T11:32:30;99332.53;;;5.40;73.16
56241;BME280;42155;53.096;23.226;2022-12-29T11:34:33;99274.03;;;5.11;73.04
56241;BME280;42155;53.096;23.226;2022-12-29T11:36:35;99332.84;;;5.61;72.81
56241;BME280;42155;53.096;23.226;2022-12-29T11:38:40;99324.75;;;5.51;72.32
56241;BME280;42155;53.096;23.226;2022-12-29T11:40:40;99340.91;;;5.71;72.23
56241;BME280;42155;53.096;23.226;2022-12-29T11:42:47;99332.06;;;5.72;72.49
56241;BME280;42155;53.096;23.226;2022-12-29T11:44:49;99315.44;;;5.58;72.26